sensor_id;sensor_type;location;lat;lon;timestamp;pressure;altitude;pressure_sealevel;temperature;humidity
20755;BME280;26385;48.470;7.938;2022-09-03T00:01:48;99421.66;;;21.01;66.68
20755;BME280;26385;48.470;7.938;2022-09-03T00:04:26;99420.16;;;20.94;66.78
20755;BME280;26385;48.470;7.938;2022-09-03T00:07:02;99426.13;;;20.99;66.90
20755;BME280;26385;48.470;7.938;2022-09-03T00:09:33;99426.91;;;21.01;66.98
20755;BME280;26385;48.470;7.938;2022-09-03T00:12:11;99419.69;;;20.81;67.79
20755;BME280;26385;48.470;7.938;2022-09-03T00:14:46;99420.72;;;20.77;68.07
20755;BME280;26385;48.470;7.938;2022-09-03T00:17:17;99424.97;;;20.81;67.57
20755;BME280;26385;48.470;7.938;2022-09-03T00:19:54;99425.78;;;20.83;67.20
20755;BME280;26385;48.470;7.938;2022-09-03T00:22:33;99415.69;;;20.41;68.03
20755;BME280;26385;48.470;7.938;2022-09-03T00:25:04;99406.19;;;20.37;67.78
20755;BME280;26385;48.470;7.938;2022-09-03T00:27:32;99398.28;;;20.37;67.45
20755;BME280;26385;48.470;7.938;2022-09-03T00:30:08;99408.53;;;20.17;67.31
20755;BME280;26385;48.470;7.938;2022-09-03T00:32:47;99409.44;;;19.88;66.82
20755;BME280;26385;48.470;7.938;2022-09-03T00:35:34;99413.97;;;20.12;65.74
20755;BME280;26385;48.470;7.938;2022-09-03T00:38:02;99409.16;;;20.27;64.95
20755;BME280;26385;48.470;7.938;2022-09-03T00:40:50;99409.34;;;20.20;64.83
20755;BME280;26385;48.470;7.938;2022-09-03T00:43:30;99422.03;;;20.34;63.86
20755;BME280;26385;48.470;7.938;2022-09-03T00:46:22;99426.66;;;20.26;64.42
20755;BME280;26385;48.470;7.938;2022-09-03T00:49:19;99426.09;;;20.16;64.31
20755;BME280;26385;48.470;7.938;2022-09-03T00:52:12;99424.25;;;19.90;64.89
20755;BME280;26385;48.470;7.938;2022-09-03T01:00:22;99433.47;;;19.74;65.69
20755;BME280;26385;48.470;7.938;2022-09-03T01:06:02;99432.81;;;19.97;65.50
20755;BME280;26385;48.470;7.938;2022-09-03T01:17:01;99425.44;;;20.38;66.66
20755;BME280;26385;48.470;7.938;2022-09-03T01:22:59;99435.09;;;20.37;66.93
20755;BME280;26385;48.470;7.938;2022-09-03T01:25:51;99435.69;;;20.19;68.08
20755;BME280;26385;48.470;7.938;2022-09-03T01:30:54;99437.63;;;20.12;68.35
20755;BME280;26385;48.470;7.938;2022-09-03T01:33:34;99430.69;;;20.10;68.28
20755;BME280;26385;48.470;7.938;2022-09-03T01:36:13;99426.03;;;20.19;67.37
20755;BME280;26385;48.470;7.938;2022-09-03T01:38:55;99436.03;;;20.07;67.04
20755;BME280;26385;48.470;7.938;2022-09-03T01:41:55;99426.53;;;20.03;66.79
20755;BME280;26385;48.470;7.938;2022-09-03T01:50:56;99419.28;;;20.09;65.44
20755;BME280;26385;48.470;7.938;2022-09-03T01:53:32;99434.09;;;19.82;66.20
20755;BME280;26385;48.470;7.938;2022-09-03T01:59:19;99425.69;;;19.71;65.82
20755;BME280;26385;48.470;7.938;2022-09-03T02:02:04;99431.47;;;19.82;65.38
20755;BME280;26385;48.470;7.938;2022-09-03T02:04:32;99423.22;;;19.65;66.04
20755;BME280;26385;48.470;7.938;2022-09-03T02:06:59;99421.88;;;19.49;66.52
20755;BME280;26385;48.470;7.938;2022-09-03T02:09:25;99422.47;;;19.27;67.60
20755;BME280;26385;48.470;7.938;2022-09-03T02:12:02;99424.84;;;19.36;67.09
20755;BME280;26385;48.470;7.938;2022-09-03T02:14:31;99422.28;;;19.33;67.61
20755;BME280;26385;48.470;7.938;2022-09-03T02:16:58;99417.88;;;19.35;67.41
20755;BME280;26385;48.470;7.938;2022-09-03T02:19:26;99416.38;;;19.27;67.98
20755;BME280;26385;48.470;7.938;2022-09-03T02:21:53;99417.94;;;19.34;67.71
20755;BME280;26385;48.470;7.938;2022-09-03T02:24:19;99414.47;;;19.32;68.29
20755;BME280;26385;48.470;7.938;2022-09-03T02:26:44;99405.81;;;19.28;68.38
20755;BME280;26385;48.470;7.938;2022-09-03T02:29:12;99416.56;;;19.19;69.14
20755;BME280;26385;48.470;7.938;2022-09-03T02:31:37;99417.69;;;19.41;68.35
20755;BME280;26385;48.470;7.938;2022-09-03T02:34:02;99414.25;;;19.39;68.07
20755;BME280;26385;48.470;7.938;2022-09-03T02:36:33;99427.13;;;19.49;67.79
20755;BME280;26385;48.470;7.938;2022-09-03T02:38:59;99439.16;;;19.59;67.47
20755;BME280;26385;48.470;7.938;2022-09-03T02:41:24;99427.66;;;19.63;67.23
20755;BME280;26385;48.470;7.938;2022-09-03T02:44:19;99436.44;;;19.62;67.33
20755;BME280;26385;48.470;7.938;2022-09-03T02:46:56;99443.00;;;19.46;67.88
20755;BME280;26385;48.470;7.938;2022-09-03T02:49:22;99440.31;;;19.47;68.00
20755;BME280;26385;48.470;7.938;2022-09-03T02:51:47;99452.94;;;19.34;68.83
20755;BME280;26385;48.470;7.938;2022-09-03T02:54:13;99445.28;;;19.25;69.25
20755;BME280;26385;48.470;7.938;2022-09-03T02:56:39;99448.28;;;19.11;70.17
20755;BME280;26385;48.470;7.938;2022-09-03T02:59:06;99442.81;;;18.85;71.58
20755;BME280;26385;48.470;7.938;2022-09-03T03:01:31;99441.22;;;19.13;70.50
20755;BME280;26385;48.470;7.938;2022-09-03T03:03:57;99448.31;;;19.08;71.62
20755;BME280;26385;48.470;7.938;2022-09-03T03:06:22;99457.38;;;18.97;72.45
20755;BME280;26385;48.470;7.938;2022-09-03T03:08:49;99459.72;;;19.09;71.58
20755;BME280;26385;48.470;7.938;2022-09-03T03:11:16;99470.91;;;19.16;71.48
20755;BME280;26385;48.470;7.938;2022-09-03T03:13:43;99462.59;;;18.98;72.20
20755;BME280;26385;48.470;7.938;2022-09-03T03:16:09;99466.06;;;19.00;72.68
20755;BME280;26385;48.470;7.938;2022-09-03T03:18:34;99472.00;;;19.07;72.51
20755;BME280;26385;48.470;7.938;2022-09-03T03:21:08;99460.34;;;19.19;71.60
20755;BME280;26385;48.470;7.938;2022-09-03T03:23:35;99464.03;;;19.11;71.50
20755;BME280;26385;48.470;7.938;2022-09-03T03:26:05;99468.94;;;18.90;73.99
20755;BME280;26385;48.470;7.938;2022-09-03T03:28:33;99465.31;;;18.95;73.35
20755;BME280;26385;48.470;7.938;2022-09-03T03:31:18;99471.81;;;19.15;72.49
20755;BME280;26385;48.470;7.938;2022-09-03T03:33:52;99472.47;;;19.23;72.00
20755;BME280;26385;48.470;7.938;2022-09-03T03:36:18;99468.03;;;19.26;72.39
20755;BME280;26385;48.470;7.938;2022-09-03T03:38:44;99467.06;;;19.29;71.86
20755;BME280;26385;48.470;7.938;2022-09-03T03:41:18;99468.75;;;19.31;71.73
20755;BME280;26385;48.470;7.938;2022-09-03T03:43:46;99467.53;;;19.45;71.30
20755;BME280;26385;48.470;7.938;2022-09-03T03:46:11;99466.06;;;19.34;71.46
20755;BME280;26385;48.470;7.938;2022-09-03T03:48:37;99464.41;;;19.30;72.02
20755;BME280;26385;48.470;7.938;2022-09-03T03:51:05;99460.59;;;19.09;72.92
20755;BME280;26385;48.470;7.938;2022-09-03T03:53:32;99450.94;;;19.10;73.64
20755;BME280;26385;48.470;7.938;2022-09-03T03:56:00;99454.38;;;19.12;73.64
20755;BME280;26385;48.470;7.938;2022-09-03T03:58:28;99457.25;;;19.03;74.51
20755;BME280;26385;48.470;7.938;2022-09-03T04:00:53;99459.78;;;19.06;74.24
20755;BME280;26385;48.470;7.938;2022-09-03T04:03:19;99456.19;;;19.10;74.42
20755;BME280;26385;48.470;7.938;2022-09-03T04:05:57;99456.91;;;19.15;74.39
20755;BME280;26385;48.470;7.938;2022-09-03T04:08:24;99457.44;;;19.29;73.38
20755;BME280;26385;48.470;7.938;2022-09-03T04:10:49;99458.88;;;19.07;75.10
20755;BME280;26385;48.470;7.938;2022-09-03T04:13:15;99450.22;;;19.03;75.42
20755;BME280;26385;48.470;7.938;2022-09-03T04:15:40;99450.59;;;18.88;77.45
20755;BME280;26385;48.470;7.938;2022-09-03T04:18:06;99446.84;;;18.98;77.00
20755;BME280;26385;48.470;7.938;2022-09-03T04:20:32;99447.66;;;19.02;77.76
20755;BME280;26385;48.470;7.938;2022-09-03T04:23:02;99442.63;;;19.27;78.18
20755;BME280;26385;48.470;7.938;2022-09-03T04:25:28;99440.06;;;19.58;75.86
20755;BME280;26385;48.470;7.938;2022-09-03T04:27:53;99440.06;;;19.24;76.41
20755;BME280;26385;48.470;7.938;2022-09-03T04:30:19;99439.88;;;19.31;76.53
20755;BME280;26385;48.470;7.938;2022-09-03T04:32:44;99444.50;;;19.22;76.74
20755;BME280;26385;48.470;7.938;2022-09-03T04:35:24;99442.53;;;19.30;79.54
20755;BME280;26385;48.470;7.938;2022-09-03T04:37:50;99441.56;;;19.66;77.07
20755;BME280;26385;48.470;7.938;2022-09-03T04:40:16;99446.44;;;19.80;74.60
20755;BME280;26385;48.470;7.938;2022-09-03T04:42:42;99448.41;;;20.03;73.27
20755;BME280;26385;48.470;7.938;2022-09-03T04:45:08;99456.25;;;20.05;72.56
20755;BME280;26385;48.470;7.938;2022-09-03T04:47:33;99456.75;;;19.88;73.59
20755;BME280;26385;48.470;7.938;2022-09-03T04:50:01;99464.31;;;19.99;73.09
20755;BME280;26385;48.470;7.938;2022-09-03T04:52:28;99470.59;;;19.62;74.62
20755;BME280;26385;48.470;7.938;2022-09-03T04:54:55;99470.72;;;19.56;75.42
20755;BME280;26385;48.470;7.938;2022-09-03T04:57:21;99472.50;;;19.55;75.64
20755;BME280;26385;48.470;7.938;2022-09-03T04:59:46;99471.38;;;19.31;77.30
20755;BME280;26385;48.470;7.938;2022-09-03T05:02:12;99455.63;;;19.31;77.30
20755;BME280;26385;48.470;7.938;2022-09-03T05:04:38;99456.19;;;19.44;76.51
20755;BME280;26385;48.470;7.938;2022-09-03T05:07:04;99449.19;;;19.43;77.01
20755;BME280;26385;48.470;7.938;2022-09-03T05:09:29;99463.63;;;19.61;75.64
20755;BME280;26385;48.470;7.938;2022-09-03T05:11:55;99451.84;;;19.41;76.09
20755;BME280;26385;48.470;7.938;2022-09-03T05:14:20;99453.59;;;19.43;76.68
20755;BME280;26385;48.470;7.938;2022-09-03T05:16:45;99456.75;;;19.21;77.33
20755;BME280;26385;48.470;7.938;2022-09-03T05:19:10;99460.97;;;19.28;77.22
20755;BME280;26385;48.470;7.938;2022-09-03T05:21:36;99463.63;;;19.27;76.82
20755;BME280;26385;48.470;7.938;2022-09-03T05:24:02;99460.25;;;19.22;77.29
20755;BME280;26385;48.470;7.938;2022-09-03T05:26:30;99461.59;;;19.04;78.06
20755;BME280;26385;48.470;7.938;2022-09-03T05:28:58;99462.13;;;19.17;77.84
20755;BME280;26385;48.470;7.938;2022-09-03T05:31:25;99460.66;;;19.39;76.39
20755;BME280;26385;48.470;7.938;2022-09-03T05:33:57;99469.03;;;19.21;77.34
20755;BME280;26385;48.470;7.938;2022-09-03T05:36:24;99467.75;;;19.37;76.73
20755;BME280;26385;48.470;7.938;2022-09-03T05:38:50;99468.16;;;19.54;76.27
20755;BME280;26385;48.470;7.938;2022-09-03T05:41:18;99466.63;;;19.46;76.19
20755;BME280;26385;48.470;7.938;2022-09-03T05:43:47;99470.88;;;19.51;75.88
20755;BME280;26385;48.470;7.938;2022-09-03T05:46:15;99461.22;;;19.52;75.68
20755;BME280;26385;48.470;7.938;2022-09-03T05:48:42;99451.41;;;19.60;75.84
20755;BME280;26385;48.470;7.938;2022-09-03T05:51:10;99459.19;;;19.63;75.69
20755;BME280;26385;48.470;7.938;2022-09-03T05:53:37;99461.13;;;19.56;76.51
20755;BME280;26385;48.470;7.938;2022-09-03T05:56:08;99468.25;;;19.51;76.39
20755;BME280;26385;48.470;7.938;2022-09-03T05:58:41;99470.44;;;19.68;75.91
20755;BME280;26385;48.470;7.938;2022-09-03T06:01:18;99467.78;;;19.70;75.66
20755;BME280;26385;48.470;7.938;2022-09-03T06:03:46;99466.31;;;19.59;75.80
20755;BME280;26385;48.470;7.938;2022-09-03T06:06:12;99466.06;;;19.67;75.55
20755;BME280;26385;48.470;7.938;2022-09-03T06:08:38;99479.50;;;19.56;76.06
20755;BME280;26385;48.470;7.938;2022-09-03T06:11:05;99481.00;;;19.65;75.75
20755;BME280;26385;48.470;7.938;2022-09-03T06:13:32;99478.31;;;19.68;75.51
20755;BME280;26385;48.470;7.938;2022-09-03T06:15:59;99473.47;;;19.84;75.35
20755;BME280;26385;48.470;7.938;2022-09-03T06:18:26;99489.50;;;19.76;75.24
20755;BME280;26385;48.470;7.938;2022-09-03T06:21:04;99478.94;;;19.78;75.14
20755;BME280;26385;48.470;7.938;2022-09-03T06:23:30;99472.28;;;19.95;74.50
20755;BME280;26385;48.470;7.938;2022-09-03T06:26:09;99472.34;;;19.94;74.88
20755;BME280;26385;48.470;7.938;2022-09-03T06:28:37;99476.19;;;20.12;74.07
20755;BME280;26385;48.470;7.938;2022-09-03T06:31:05;99472.63;;;20.42;73.01
20755;BME280;26385;48.470;7.938;2022-09-03T06:33:32;99476.75;;;20.80;72.38
20755;BME280;26385;48.470;7.938;2022-09-03T06:35:59;99487.91;;;21.15;70.22
20755;BME280;26385;48.470;7.938;2022-09-03T06:38:26;99478.75;;;21.25;69.29
20755;BME280;26385;48.470;7.938;2022-09-03T06:40:59;99477.09;;;21.23;69.24
20755;BME280;26385;48.470;7.938;2022-09-03T06:43:29;99487.03;;;21.15;69.10
20755;BME280;26385;48.470;7.938;2022-09-03T06:45:57;99491.63;;;21.08;69.68
20755;BME280;26385;48.470;7.938;2022-09-03T06:48:23;99486.50;;;21.05;69.99
20755;BME280;26385;48.470;7.938;2022-09-03T06:50:59;99487.66;;;20.96;70.31
20755;BME280;26385;48.470;7.938;2022-09-03T06:53:26;99489.41;;;20.96;70.68
20755;BME280;26385;48.470;7.938;2022-09-03T06:55:56;99482.56;;;20.90;70.55
20755;BME280;26385;48.470;7.938;2022-09-03T06:58:22;99481.59;;;20.94;70.53
20755;BME280;26385;48.470;7.938;2022-09-03T07:00:48;99492.75;;;21.01;70.86
20755;BME280;26385;48.470;7.938;2022-09-03T07:03:14;99490.78;;;21.07;70.80
20755;BME280;26385;48.470;7.938;2022-09-03T07:05:42;99483.19;;;21.25;70.83
20755;BME280;26385;48.470;7.938;2022-09-03T07:08:07;99482.22;;;21.54;70.09
20755;BME280;26385;48.470;7.938;2022-09-03T07:10:35;99488.69;;;21.70;69.01
20755;BME280;26385;48.470;7.938;2022-09-03T07:13:02;99488.06;;;21.87;68.71
20755;BME280;26385;48.470;7.938;2022-09-03T07:17:52;99487.53;;;22.26;67.23
20755;BME280;26385;48.470;7.938;2022-09-03T07:20:17;99492.34;;;22.38;66.08
20755;BME280;26385;48.470;7.938;2022-09-03T07:22:44;99508.97;;;22.40;66.35
20755;BME280;26385;48.470;7.938;2022-09-03T07:25:09;99514.03;;;22.46;65.89
20755;BME280;26385;48.470;7.938;2022-09-03T07:27:35;99512.06;;;22.51;65.30
20755;BME280;26385;48.470;7.938;2022-09-03T07:30:01;99506.69;;;22.54;64.97
20755;BME280;26385;48.470;7.938;2022-09-03T07:32:27;99515.41;;;22.56;65.18
20755;BME280;26385;48.470;7.938;2022-09-03T07:34:52;99513.41;;;22.61;64.59
20755;BME280;26385;48.470;7.938;2022-09-03T07:37:18;99506.38;;;22.62;64.21
20755;BME280;26385;48.470;7.938;2022-09-03T07:39:43;99516.06;;;22.61;64.64
20755;BME280;26385;48.470;7.938;2022-09-03T07:42:08;99527.53;;;22.60;64.35
20755;BME280;26385;48.470;7.938;2022-09-03T07:44:35;99515.16;;;22.62;64.70
20755;BME280;26385;48.470;7.938;2022-09-03T07:47:00;99515.91;;;22.66;64.40
20755;BME280;26385;48.470;7.938;2022-09-03T07:49:25;99503.63;;;22.65;64.64
20755;BME280;26385;48.470;7.938;2022-09-03T07:51:51;99499.44;;;22.59;64.99
20755;BME280;26385;48.470;7.938;2022-09-03T07:54:18;99483.59;;;22.59;65.08
20755;BME280;26385;48.470;7.938;2022-09-03T07:56:45;99480.94;;;22.59;65.90
20755;BME280;26385;48.470;7.938;2022-09-03T07:59:10;99500.19;;;22.63;65.73
20755;BME280;26385;48.470;7.938;2022-09-03T08:01:36;99514.25;;;22.63;66.31
20755;BME280;26385;48.470;7.938;2022-09-03T08:04:02;99514.31;;;22.62;68.17
20755;BME280;26385;48.470;7.938;2022-09-03T08:06:29;99516.03;;;22.63;68.88
20755;BME280;26385;48.470;7.938;2022-09-03T08:08:59;99511.91;;;22.77;68.02
20755;BME280;26385;48.470;7.938;2022-09-03T08:11:26;99521.03;;;22.92;68.64
20755;BME280;26385;48.470;7.938;2022-09-03T08:13:55;99525.84;;;23.05;67.51
20755;BME280;26385;48.470;7.938;2022-09-03T08:16:26;99526.41;;;23.11;67.03
20755;BME280;26385;48.470;7.938;2022-09-03T08:18:51;99539.75;;;23.08;67.30
20755;BME280;26385;48.470;7.938;2022-09-03T08:21:18;99543.41;;;23.06;67.79
20755;BME280;26385;48.470;7.938;2022-09-03T08:23:48;99542.72;;;23.00;68.90
20755;BME280;26385;48.470;7.938;2022-09-03T08:26:15;99553.81;;;22.87;70.10
20755;BME280;26385;48.470;7.938;2022-09-03T08:28:41;99556.84;;;22.76;71.31
20755;BME280;26385;48.470;7.938;2022-09-03T08:31:09;99560.91;;;22.63;72.61
20755;BME280;26385;48.470;7.938;2022-09-03T08:33:39;99568.84;;;22.61;72.71
20755;BME280;26385;48.470;7.938;2022-09-03T08:38:39;99566.69;;;22.72;73.38
20755;BME280;26385;48.470;7.938;2022-09-03T08:41:14;99566.25;;;22.83;73.05
20755;BME280;26385;48.470;7.938;2022-09-03T08:55:10;99593.81;;;23.65;67.93
20755;BME280;26385;48.470;7.938;2022-09-03T08:58:05;99586.53;;;23.70;68.21
20755;BME280;26385;48.470;7.938;2022-09-03T09:00:56;99576.03;;;23.69;67.96
20755;BME280;26385;48.470;7.938;2022-09-03T09:08:44;99556.09;;;23.40;69.28
20755;BME280;26385;48.470;7.938;2022-09-03T09:11:19;99550.34;;;23.50;70.28
20755;BME280;26385;48.470;7.938;2022-09-03T09:13:57;99550.19;;;23.75;69.81
20755;BME280;26385;48.470;7.938;2022-09-03T09:17:01;99557.59;;;24.08;68.97
20755;BME280;26385;48.470;7.938;2022-09-03T09:22:27;99561.88;;;24.31;68.99
20755;BME280;26385;48.470;7.938;2022-09-03T09:24:55;99562.19;;;24.43;68.78
20755;BME280;26385;48.470;7.938;2022-09-03T09:27:23;99560.13;;;24.69;67.26
20755;BME280;26385;48.470;7.938;2022-09-03T09:29:49;99559.72;;;24.95;66.64
20755;BME280;26385;48.470;7.938;2022-09-03T09:32:17;99559.91;;;25.29;64.92
20755;BME280;26385;48.470;7.938;2022-09-03T09:34:43;99563.53;;;25.45;65.37
20755;BME280;26385;48.470;7.938;2022-09-03T09:37:11;99557.38;;;25.44;66.05
20755;BME280;26385;48.470;7.938;2022-09-03T09:39:38;99561.03;;;25.42;64.99
20755;BME280;26385;48.470;7.938;2022-09-03T09:42:07;99564.22;;;25.31;63.10
20755;BME280;26385;48.470;7.938;2022-09-03T09:44:34;99565.59;;;25.21;63.04
20755;BME280;26385;48.470;7.938;2022-09-03T09:47:05;99553.50;;;24.96;62.06
20755;BME280;26385;48.470;7.938;2022-09-03T09:49:34;99564.69;;;24.84;64.05
20755;BME280;26385;48.470;7.938;2022-09-03T09:52:04;99571.94;;;24.81;64.12
20755;BME280;26385;48.470;7.938;2022-09-03T09:54:32;99576.75;;;24.73;64.99
20755;BME280;26385;48.470;7.938;2022-09-03T09:57:03;99572.16;;;24.57;65.59
20755;BME280;26385;48.470;7.938;2022-09-03T09:59:29;99581.72;;;24.41;66.46
20755;BME280;26385;48.470;7.938;2022-09-03T10:02:22;99576.63;;;24.16;66.15
20755;BME280;26385;48.470;7.938;2022-09-03T10:04:50;99578.09;;;24.03;66.23
20755;BME280;26385;48.470;7.938;2022-09-03T10:07:23;99581.88;;;23.97;66.67
20755;BME280;26385;48.470;7.938;2022-09-03T10:12:42;99581.81;;;23.99;68.67
20755;BME280;26385;48.470;7.938;2022-09-03T10:15:23;99573.63;;;24.05;68.90
20755;BME280;26385;48.470;7.938;2022-09-03T10:17:59;99575.88;;;24.12;69.36
20755;BME280;26385;48.470;7.938;2022-09-03T10:20:48;99584.03;;;24.08;69.83
20755;BME280;26385;48.470;7.938;2022-09-03T10:23:26;99583.72;;;24.15;70.11
20755;BME280;26385;48.470;7.938;2022-09-03T10:26:08;99583.13;;;24.09;69.35
20755;BME280;26385;48.470;7.938;2022-09-03T10:28:38;99589.47;;;24.05;69.06
20755;BME280;26385;48.470;7.938;2022-09-03T10:31:18;99597.78;;;23.96;68.41
20755;BME280;26385;48.470;7.938;2022-09-03T10:34:05;99594.50;;;23.91;68.44
20755;BME280;26385;48.470;7.938;2022-09-03T10:36:39;99591.97;;;23.87;68.86
20755;BME280;26385;48.470;7.938;2022-09-03T10:39:24;99597.66;;;23.78;69.98
20755;BME280;26385;48.470;7.938;2022-09-03T10:45:14;99589.19;;;23.70;69.81
20755;BME280;26385;48.470;7.938;2022-09-03T10:50:46;99590.53;;;23.58;70.79
20755;BME280;26385;48.470;7.938;2022-09-03T10:53:41;99594.69;;;23.66;70.37
20755;BME280;26385;48.470;7.938;2022-09-03T10:56:11;99598.47;;;23.58;71.18
20755;BME280;26385;48.470;7.938;2022-09-03T10:58:47;99586.94;;;23.61;71.15
20755;BME280;26385;48.470;7.938;2022-09-03T11:04:25;99591.69;;;23.31;72.47
20755;BME280;26385;48.470;7.938;2022-09-03T11:06:58;99610.94;;;23.13;73.51
20755;BME280;26385;48.470;7.938;2022-09-03T11:09:33;99634.88;;;22.85;67.94
20755;BME280;26385;48.470;7.938;2022-09-03T11:12:04;99631.81;;;22.48;68.29
20755;BME280;26385;48.470;7.938;2022-09-03T11:14:38;99628.75;;;22.11;69.61
20755;BME280;26385;48.470;7.938;2022-09-03T11:17:09;99638.25;;;21.90;69.97
20755;BME280;26385;48.470;7.938;2022-09-03T11:19:44;99632.88;;;21.67;72.12
20755;BME280;26385;48.470;7.938;2022-09-03T11:22:12;99637.69;;;21.80;71.85
20755;BME280;26385;48.470;7.938;2022-09-03T11:24:40;99627.00;;;21.58;73.27
20755;BME280;26385;48.470;7.938;2022-09-03T11:27:18;99628.09;;;21.53;73.17
20755;BME280;26385;48.470;7.938;2022-09-03T11:30:01;99626.19;;;21.56;73.59
20755;BME280;26385;48.470;7.938;2022-09-03T11:32:46;99624.28;;;21.61;73.32
20755;BME280;26385;48.470;7.938;2022-09-03T11:38:19;99640.66;;;21.71;74.16
20755;BME280;26385;48.470;7.938;2022-09-03T11:45:48;99629.13;;;21.47;79.32
20755;BME280;26385;48.470;7.938;2022-09-03T11:48:40;99621.78;;;21.57;79.47
20755;BME280;26385;48.470;7.938;2022-09-03T11:51:28;99618.44;;;21.78;77.71
20755;BME280;26385;48.470;7.938;2022-09-03T11:53:56;99612.13;;;22.09;75.08
20755;BME280;26385;48.470;7.938;2022-09-03T11:56:22;99603.38;;;22.07;73.73
20755;BME280;26385;48.470;7.938;2022-09-03T11:59:00;99618.09;;;22.39;72.17
20755;BME280;26385;48.470;7.938;2022-09-03T12:01:27;99618.41;;;22.55;71.88
20755;BME280;26385;48.470;7.938;2022-09-03T12:03:57;99621.31;;;22.47;72.70
20755;BME280;26385;48.470;7.938;2022-09-03T12:09:25;99608.84;;;22.51;72.74
20755;BME280;26385;48.470;7.938;2022-09-03T12:12:18;99602.91;;;22.45;72.67
20755;BME280;26385;48.470;7.938;2022-09-03T12:17:58;99607.59;;;21.86;74.62
20755;BME280;26385;48.470;7.938;2022-09-03T12:26:10;99605.16;;;22.78;71.56
20755;BME280;26385;48.470;7.938;2022-09-03T12:28:41;99597.16;;;23.26;69.60
20755;BME280;26385;48.470;7.938;2022-09-03T12:31:18;99584.78;;;23.49;68.09
20755;BME280;26385;48.470;7.938;2022-09-03T12:33:51;99586.81;;;23.84;67.75
20755;BME280;26385;48.470;7.938;2022-09-03T12:36:16;99585.22;;;24.60;65.27
20755;BME280;26385;48.470;7.938;2022-09-03T12:38:42;99585.22;;;24.79;62.75
20755;BME280;26385;48.470;7.938;2022-09-03T12:41:25;99589.03;;;24.92;62.49
20755;BME280;26385;48.470;7.938;2022-09-03T12:43:56;99591.19;;;24.84;61.84
20755;BME280;26385;48.470;7.938;2022-09-03T12:46:27;99595.06;;;25.51;60.27
20755;BME280;26385;48.470;7.938;2022-09-03T12:49:03;99587.47;;;25.43;59.25
20755;BME280;26385;48.470;7.938;2022-09-03T12:51:41;99599.28;;;24.81;61.17
20755;BME280;26385;48.470;7.938;2022-09-03T12:54:09;99595.63;;;24.84;60.62
20755;BME280;26385;48.470;7.938;2022-09-03T12:56:41;99603.84;;;24.78;58.57
20755;BME280;26385;48.470;7.938;2022-09-03T12:59:11;99611.66;;;24.21;59.39
20755;BME280;26385;48.470;7.938;2022-09-03T13:02:01;99603.63;;;24.04;61.37
20755;BME280;26385;48.470;7.938;2022-09-03T13:04:30;99603.31;;;23.91;61.33
20755;BME280;26385;48.470;7.938;2022-09-03T13:09:45;99621.69;;;23.94;60.68
20755;BME280;26385;48.470;7.938;2022-09-03T13:14:47;99615.19;;;23.59;60.88
20755;BME280;26385;48.470;7.938;2022-09-03T13:20:29;99614.72;;;23.49;60.08
20755;BME280;26385;48.470;7.938;2022-09-03T13:23:16;99612.94;;;23.50;60.49
20755;BME280;26385;48.470;7.938;2022-09-03T13:27:17;99610.81;;;23.38;62.17
20755;BME280;26385;48.470;7.938;2022-09-03T13:29:46;99604.34;;;23.23;63.42
20755;BME280;26385;48.470;7.938;2022-09-03T13:35:01;99601.75;;;22.99;64.81
20755;BME280;26385;48.470;7.938;2022-09-03T13:37:37;99604.75;;;22.90;65.30
20755;BME280;26385;48.470;7.938;2022-09-03T13:40:15;99605.16;;;22.78;67.29
20755;BME280;26385;48.470;7.938;2022-09-03T13:42:47;99600.31;;;22.91;65.78
20755;BME280;26385;48.470;7.938;2022-09-03T13:45:25;99597.09;;;22.83;65.50
20755;BME280;26385;48.470;7.938;2022-09-03T13:48:05;99600.19;;;22.94;65.26
20755;BME280;26385;48.470;7.938;2022-09-03T13:51:02;99595.25;;;23.08;65.53
20755;BME280;26385;48.470;7.938;2022-09-03T13:53:49;99592.84;;;23.02;65.66
20755;BME280;26385;48.470;7.938;2022-09-03T13:56:43;99593.50;;;22.85;65.08
20755;BME280;26385;48.470;7.938;2022-09-03T14:04:49;99590.84;;;22.62;69.18
20755;BME280;26385;48.470;7.938;2022-09-03T14:07:25;99585.44;;;22.65;68.79
20755;BME280;26385;48.470;7.938;2022-09-03T14:10:05;99585.72;;;22.34;69.31
20755;BME280;26385;48.470;7.938;2022-09-03T14:12:52;99581.50;;;22.30;67.87
20755;BME280;26385;48.470;7.938;2022-09-03T14:15:35;99576.09;;;22.33;68.90
20755;BME280;26385;48.470;7.938;2022-09-03T14:20:45;99566.22;;;22.61;67.24
20755;BME280;26385;48.470;7.938;2022-09-03T14:25:59;99569.50;;;23.13;65.30
20755;BME280;26385;48.470;7.938;2022-09-03T14:28:30;99565.56;;;23.01;66.02
20755;BME280;26385;48.470;7.938;2022-09-03T14:34:00;99566.75;;;23.58;63.84
20755;BME280;26385;48.470;7.938;2022-09-03T14:36:55;99563.75;;;23.68;64.20
20755;BME280;26385;48.470;7.938;2022-09-03T14:42:06;99562.63;;;23.51;64.35
20755;BME280;26385;48.470;7.938;2022-09-03T14:55:26;99562.69;;;23.72;64.33
20755;BME280;26385;48.470;7.938;2022-09-03T15:06:24;99559.38;;;23.67;65.61
20755;BME280;26385;48.470;7.938;2022-09-03T15:11:47;99562.94;;;23.44;65.58
20755;BME280;26385;48.470;7.938;2022-09-03T15:14:19;99559.00;;;23.54;65.58
20755;BME280;26385;48.470;7.938;2022-09-03T15:16:55;99565.72;;;23.63;64.03
20755;BME280;26385;48.470;7.938;2022-09-03T15:22:25;99559.16;;;24.12;63.79
20755;BME280;26385;48.470;7.938;2022-09-03T15:25:18;99559.50;;;24.04;62.33
20755;BME280;26385;48.470;7.938;2022-09-03T15:27:52;99563.84;;;24.26;61.38
20755;BME280;26385;48.470;7.938;2022-09-03T15:30:20;99567.38;;;24.06;61.58
20755;BME280;26385;48.470;7.938;2022-09-03T15:38:38;99569.06;;;24.27;62.15
20755;BME280;26385;48.470;7.938;2022-09-03T15:41:10;99562.19;;;24.23;61.98
20755;BME280;26385;48.470;7.938;2022-09-03T15:43:42;99563.91;;;24.24;61.93
20755;BME280;26385;48.470;7.938;2022-09-03T15:47:11;99564.03;;;24.21;62.21
20755;BME280;26385;48.470;7.938;2022-09-03T15:49:35;99567.50;;;24.23;61.94
20755;BME280;26385;48.470;7.938;2022-09-03T15:54:47;99567.97;;;24.33;61.94
20755;BME280;26385;48.470;7.938;2022-09-03T15:57:24;99571.84;;;24.45;61.94